Time;durP1;ratioP1;P1;durP2;ratioP2;P2;SDS_P1;SDS_P2;PMS_P1;PMS_P2;Temp;Humidity;BMP_temperature;BMP_pressure;BME280_temperature;BME280_humidity;BME280_pressure;Samples;Min_cycle;Max_cycle;Signal;HPM_P1;HPM_P2
2021/07/08 00:01:02;;;;;;;3.25;2.05;;;18.50;99.90;;;;;;5025050;28;20105;-69
2021/07/08 00:03:28;;;;;;;4.80;2.45;;;18.50;99.90;;;;;;5037903;28;20089;-68
2021/07/08 00:05:54;;;;;;;6.57;2.88;;;18.50;99.90;;;;;;5043316;28;20124;-68
2021/07/08 00:08:20;;;;;;;5.30;2.67;;;18.60;99.90;;;;;;5044471;28;20046;-69
2021/07/08 00:10:48;;;;;;;5.32;2.92;;;18.60;99.90;;;;;;5044181;28;20029;-68
2021/07/08 00:13:20;;;;;;;4.65;2.47;;;18.60;99.90;;;;;;5044692;28;20021;-69
2021/07/08 00:15:47;;;;;;;7.53;2.38;;;18.60;99.90;;;;;;5043294;28;20021;-70
2021/07/08 00:18:13;;;;;;;4.57;1.95;;;18.60;99.90;;;;;;5044435;28;20025;-70
2021/07/08 00:20:40;;;;;;;3.28;2.08;;;18.60;99.90;;;;;;5044450;28;20022;-68
2021/07/08 00:23:06;;;;;;;4.80;2.42;;;18.60;99.90;;;;;;5044718;28;20021;-71
2021/07/08 00:25:32;;;;;;;10.65;3.33;;;18.60;99.90;;;;;;5043344;28;20033;-69
2021/07/08 00:27:58;;;;;;;8.98;2.15;;;18.60;99.90;;;;;;5044287;28;20037;-68
2021/07/08 00:30:24;;;;;;;9.98;2.80;;;18.60;99.90;;;;;;5044357;28;20060;-69
2021/07/08 00:32:51;;;;;;;4.05;2.58;;;18.60;99.90;;;;;;5044469;28;20030;-69
2021/07/08 00:35:16;;;;;;;3.92;2.00;;;18.60;99.90;;;;;;5044374;28;20049;-69
2021/07/08 00:37:43;;;;;;;6.80;2.38;;;18.60;99.90;;;;;;5044441;28;20049;-68
2021/07/08 00:40:12;;;;;;;9.77;2.92;;;18.60;99.90;;;;;;5044390;28;20026;-68
2021/07/08 00:42:39;;;;;;;7.30;3.13;;;18.50;99.90;;;;;;5044657;28;20108;-68
2021/07/08 00:45:10;;;;;;;8.38;2.97;;;18.50;99.90;;;;;;5044475;28;20029;-71
2021/07/08 00:47:35;;;;;;;3.58;2.05;;;18.40;99.90;;;;;;5044084;28;20442;-70
2021/07/08 00:50:06;;;;;;;5.55;2.47;;;18.40;99.90;;;;;;5044336;28;20034;-69
2021/07/08 00:52:32;;;;;;;4.32;2.70;;;18.40;99.90;;;;;;5044379;28;20031;-69
2021/07/08 00:54:58;;;;;;;5.13;2.70;;;18.40;99.90;;;;;;5044270;28;20045;-69
2021/07/08 00:57:23;;;;;;;5.07;2.60;;;18.40;99.90;;;;;;5043089;28;20049;-69
2021/07/08 00:59:53;;;;;;;9.23;2.85;;;18.40;99.90;;;;;;5044103;28;20037;-69
2021/07/08 01:02:20;;;;;;;5.70;2.90;;;18.30;99.90;;;;;;5044026;28;20029;-68
2021/07/08 01:04:48;;;;;;;5.70;2.60;;;18.40;99.90;;;;;;5044159;28;20029;-68
2021/07/08 01:07:15;;;;;;;8.57;2.42;;;18.30;99.90;;;;;;5042617;28;20025;-69
2021/07/08 01:09:41;;;;;;;3.25;2.63;;;18.30;99.90;;;;;;5044138;28;20057;-68
2021/07/08 01:12:08;;;;;;;10.00;2.72;;;18.30;99.90;;;;;;5043878;28;20056;-70
2021/07/08 01:14:35;;;;;;;4.60;2.58;;;18.30;99.90;;;;;;5044204;28;20085;-69
2021/07/08 01:17:01;;;;;;;4.70;2.72;;;18.30;99.90;;;;;;5044221;28;20083;-69
2021/07/08 01:19:27;;;;;;;4.18;2.58;;;18.30;99.90;;;;;;5043869;28;20064;-69
2021/07/08 01:21:53;;;;;;;10.77;3.50;;;18.20;99.90;;;;;;5045311;28;20021;-69
2021/07/08 01:24:19;;;;;;;4.47;2.67;;;18.30;99.90;;;;;;5047523;28;20353;-69
2021/07/08 01:26:45;;;;;;;6.43;2.63;;;18.30;99.90;;;;;;5047508;28;20033;-69
2021/07/08 01:29:12;;;;;;;4.15;2.42;;;18.20;99.90;;;;;;5047340;28;20042;-70
2021/07/08 01:31:37;;;;;;;6.00;3.42;;;18.20;99.90;;;;;;5047791;28;20025;-68
2021/07/08 01:34:04;;;;;;;8.80;2.90;;;18.20;99.90;;;;;;5047398;28;20036;-69
2021/07/08 01:36:29;;;;;;;9.68;3.17;;;18.20;99.90;;;;;;5047301;28;20056;-69
2021/07/08 01:38:55;;;;;;;4.05;2.65;;;18.20;99.90;;;;;;5047241;28;20029;-68
2021/07/08 01:41:21;;;;;;;5.05;2.30;;;18.20;99.90;;;;;;5047172;28;20060;-70
2021/07/08 01:43:47;;;;;;;8.40;3.08;;;18.10;99.90;;;;;;5047197;28;20104;-69
2021/07/08 01:46:15;;;;;;;9.70;3.30;;;18.20;99.90;;;;;;5046987;28;20025;-69
2021/07/08 01:48:42;;;;;;;8.10;3.83;;;18.20;99.90;;;;;;5046826;28;20038;-71
2021/07/08 01:51:35;;;;;;;4.78;3.00;;;18.20;99.90;;;;;;5047073;28;20025;-70
2021/07/08 01:54:02;;;;;;;6.75;4.28;;;18.20;99.90;;;;;;5046233;28;20388;-68
2021/07/08 01:56:28;;;;;;;7.25;3.08;;;18.20;99.90;;;;;;5046740;28;20033;-69
2021/07/08 01:58:54;;;;;;;5.20;2.90;;;18.20;99.90;;;;;;5046974;28;20038;-70
2021/07/08 02:01:24;;;;;;;5.85;3.67;;;18.20;99.90;;;;;;5046777;28;20053;-69
2021/07/08 02:03:50;;;;;;;7.57;3.17;;;18.20;99.90;;;;;;5046475;28;20026;-69
2021/07/08 02:06:16;;;;;;;7.50;3.00;;;18.20;99.90;;;;;;5046901;28;20070;-69
2021/07/08 02:08:42;;;;;;;6.72;3.47;;;18.20;99.90;;;;;;5045202;28;20064;-68
2021/07/08 02:11:09;;;;;;;5.45;3.42;;;18.10;99.90;;;;;;5046651;28;20399;-68
2021/07/08 02:13:36;;;;;;;5.45;3.13;;;18.10;99.90;;;;;;5046739;28;20033;-70
2021/07/08 02:16:05;;;;;;;6.60;3.30;;;18.00;99.90;;;;;;5046780;28;20030;-67
2021/07/08 02:18:31;;;;;;;8.35;3.17;;;18.00;99.90;;;;;;5046646;28;20041;-69
2021/07/08 02:20:56;;;;;;;4.75;2.67;;;18.00;99.90;;;;;;5046511;28;20029;-68
2021/07/08 02:23:22;;;;;;;5.82;3.00;;;18.00;99.90;;;;;;5046673;28;20056;-68
2021/07/08 02:25:48;;;;;;;5.97;3.15;;;18.00;99.90;;;;;;5046504;28;20082;-68
2021/07/08 02:28:14;;;;;;;6.68;3.45;;;18.00;99.90;;;;;;5046180;28;20070;-68
2021/07/08 02:30:40;;;;;;;6.90;3.90;;;18.00;99.90;;;;;;5046481;28;20079;-69
2021/07/08 02:33:07;;;;;;;8.90;3.88;;;18.00;99.90;;;;;;5046252;28;20030;-71
2021/07/08 02:35:34;;;;;;;9.05;4.82;;;17.90;99.90;;;;;;5046293;28;20031;-69
2021/07/08 02:38:00;;;;;;;9.02;4.32;;;17.90;99.90;;;;;;5046202;28;20402;-67
2021/07/08 02:40:31;;;;;;;9.10;4.57;;;17.70;99.90;;;;;;5046447;28;20036;-66
2021/07/08 02:42:58;;;;;;;6.22;4.05;;;17.60;99.90;;;;;;5045953;28;20076;-68
2021/07/08 02:45:28;;;;;;;6.50;3.85;;;17.50;99.90;;;;;;5045849;28;20032;-72
2021/07/08 02:47:54;;;;;;;11.32;5.13;;;17.40;99.90;;;;;;5046087;28;20037;-68
2021/07/08 02:50:21;;;;;;;13.82;5.22;;;17.40;99.90;;;;;;5045737;28;20047;-72
2021/07/08 02:52:48;;;;;;;8.88;4.40;;;17.30;99.90;;;;;;5045764;28;20033;-69
2021/07/08 02:55:14;;;;;;;10.82;4.65;;;17.30;99.90;;;;;;5044408;28;20025;-68
2021/07/08 02:57:40;;;;;;;5.65;4.00;;;17.30;99.90;;;;;;5045834;28;20076;-70
2021/07/08 03:00:08;;;;;;;9.35;4.00;;;17.30;99.90;;;;;;5045848;28;20035;-71
2021/07/08 03:02:35;;;;;;;5.57;3.70;;;17.30;99.90;;;;;;5045874;28;20056;-70
2021/07/08 03:05:02;;;;;;;9.35;4.18;;;17.30;99.90;;;;;;5045564;28;20029;-68
2021/07/08 03:07:28;;;;;;;13.80;4.95;;;17.30;99.90;;;;;;5045413;28;20026;-69
2021/07/08 03:09:53;;;;;;;8.07;4.15;;;17.30;99.90;;;;;;5045549;28;20028;-68
2021/07/08 03:12:19;;;;;;;10.20;5.03;;;17.30;99.90;;;;;;5045249;28;20057;-70
2021/07/08 03:14:45;;;;;;;11.00;4.97;;;17.30;99.90;;;;;;5045414;28;20062;-71
2021/07/08 03:17:10;;;;;;;7.15;4.47;;;17.20;99.90;;;;;;5045373;28;20476;-69
2021/07/08 03:19:36;;;;;;;7.55;4.45;;;17.20;99.90;;;;;;5044062;28;20032;-71
2021/07/08 03:22:02;;;;;;;7.88;4.95;;;17.20;99.90;;;;;;5045479;28;20080;-68
2021/07/08 03:24:28;;;;;;;9.07;4.35;;;17.20;99.90;;;;;;5045061;28;20491;-69
2021/07/08 03:26:53;;;;;;;15.48;4.30;;;17.20;99.90;;;;;;5045299;28;20029;-69
2021/07/08 03:29:19;;;;;;;12.00;4.65;;;17.20;99.90;;;;;;5045178;28;20052;-68
2021/07/08 03:31:45;;;;;;;11.02;4.70;;;17.20;99.90;;;;;;5043979;28;20068;-69
2021/07/08 03:34:11;;;;;;;14.57;4.60;;;17.20;99.90;;;;;;5045099;28;20099;-69
2021/07/08 03:36:37;;;;;;;9.02;4.13;;;17.20;99.90;;;;;;5045065;28;20022;-69
2021/07/08 03:39:05;;;;;;;7.00;4.50;;;17.30;99.90;;;;;;5045111;28;20065;-70
2021/07/08 03:41:31;;;;;;;8.15;4.05;;;17.30;99.90;;;;;;5045312;28;20026;-69
2021/07/08 03:43:56;;;;;;;10.30;3.92;;;17.30;99.90;;;;;;5044557;28;20036;-70
2021/07/08 03:46:22;;;;;;;9.10;5.00;;;17.30;99.90;;;;;;5045015;28;20042;-69
2021/07/08 03:48:48;;;;;;;5.82;3.80;;;17.30;99.90;;;;;;5043504;28;20076;-69
2021/07/08 03:51:13;;;;;;;10.80;4.72;;;17.30;99.90;;;;;;5044764;28;20049;-70
2021/07/08 03:53:39;;;;;;;7.93;4.07;;;17.30;99.90;;;;;;5044764;28;20052;-70
2021/07/08 03:56:05;;;;;;;9.85;4.85;;;17.30;99.90;;;;;;5044857;28;20072;-71
2021/07/08 03:58:30;;;;;;;10.10;4.60;;;17.30;99.90;;;;;;5044960;28;20033;-70
2021/07/08 04:00:56;;;;;;;7.55;4.68;;;17.30;99.90;;;;;;5044797;28;20060;-70
2021/07/08 04:03:22;;;;;;;8.30;4.68;;;17.30;99.90;;;;;;5044577;28;20399;-70
2021/07/08 04:05:48;;;;;;;8.85;3.95;;;17.30;99.90;;;;;;5044827;28;20053;-68
2021/07/08 04:08:14;;;;;;;10.73;4.88;;;17.30;99.90;;;;;;5043223;28;20034;-70
2021/07/08 04:10:41;;;;;;;14.43;5.13;;;17.40;99.90;;;;;;5044645;28;20025;-69
2021/07/08 04:13:13;;;;;;;8.95;5.22;;;17.40;99.90;;;;;;5044966;28;20025;-72
2021/07/08 04:15:39;;;;;;;9.85;4.82;;;17.40;99.90;;;;;;5044783;28;20025;-71
2021/07/08 04:18:05;;;;;;;8.98;4.53;;;17.40;99.90;;;;;;5044767;28;20029;-72
2021/07/08 04:20:32;;;;;;;7.80;3.78;;;17.50;99.90;;;;;;5044523;28;20061;-69
2021/07/08 04:22:58;;;;;;;8.13;4.75;;;17.50;99.90;;;;;;5044630;28;20029;-68
2021/07/08 04:25:24;;;;;;;13.20;6.13;;;17.50;99.90;;;;;;5044755;28;20028;-71
2021/07/08 04:27:50;;;;;;;7.55;4.25;;;17.50;99.90;;;;;;5044397;28;20037;-71
2021/07/08 04:30:21;;;;;;;6.85;4.30;;;17.50;99.90;;;;;;5044323;28;20026;-69
2021/07/08 04:32:47;;;;;;;6.95;4.63;;;17.50;99.90;;;;;;5044463;28;20029;-71
2021/07/08 04:35:24;;;;;;;8.95;5.88;;;17.60;99.90;;;;;;5043400;28;20052;-70
2021/07/08 04:37:50;;;;;;;12.10;5.30;;;17.50;99.90;;;;;;5044625;28;20537;-71
2021/07/08 04:40:18;;;;;;;9.30;5.20;;;17.60;99.90;;;;;;5044563;28;20060;-69
2021/07/08 04:42:46;;;;;;;10.85;5.35;;;17.60;99.90;;;;;;5043235;28;20112;-71
2021/07/08 04:45:12;;;;;;;7.05;4.82;;;17.60;99.90;;;;;;5044439;28;20022;-70
2021/07/08 04:47:39;;;;;;;8.55;4.68;;;17.60;99.90;;;;;;5043169;28;20064;-71
2021/07/08 04:50:07;;;;;;;12.10;5.35;;;17.60;99.90;;;;;;5044257;28;20080;-71
2021/07/08 04:52:32;;;;;;;9.32;5.53;;;17.70;99.90;;;;;;5043382;28;20034;-70
2021/07/08 04:54:58;;;;;;;10.02;5.03;;;17.70;99.90;;;;;;5043952;28;20033;-69
2021/07/08 04:57:23;;;;;;;8.73;5.13;;;17.70;99.90;;;;;;5043267;28;20041;-69
2021/07/08 04:59:49;;;;;;;10.27;5.13;;;17.60;99.90;;;;;;5046811;28;20033;-69
2021/07/08 05:02:15;;;;;;;11.43;5.25;;;17.60;99.90;;;;;;5046089;28;20029;-69
2021/07/08 05:04:41;;;;;;;7.55;4.68;;;17.60;99.90;;;;;;5046569;28;20025;-69
2021/07/08 05:07:08;;;;;;;11.65;5.82;;;17.60;99.90;;;;;;5047864;28;20044;-69
2021/07/08 05:09:33;;;;;;;20.65;5.45;;;17.60;99.90;;;;;;5047697;28;20049;-69
2021/07/08 05:11:59;;;;;;;10.82;5.22;;;17.60;99.90;;;;;;5046170;28;20084;-69
2021/07/08 05:14:24;;;;;;;9.75;4.70;;;17.60;99.90;;;;;;5047859;28;20399;-69
2021/07/08 05:16:50;;;;;;;8.10;4.57;;;17.60;99.90;;;;;;5047789;28;20083;-70
2021/07/08 05:19:16;;;;;;;11.00;5.18;;;17.60;99.90;;;;;;5047392;28;20030;-70
2021/07/08 05:21:50;;;;;;;10.77;5.22;;;17.70;99.90;;;;;;5047593;28;20045;-72
2021/07/08 05:24:20;;;;;;;9.57;5.10;;;17.70;99.90;;;;;;5047414;28;20040;-70
2021/07/08 05:26:46;;;;;;;9.57;5.15;;;17.70;99.90;;;;;;5047322;28;20059;-70
2021/07/08 05:29:12;;;;;;;11.10;5.97;;;17.80;99.90;;;;;;5046944;28;20100;-70
2021/07/08 05:31:38;;;;;;;11.55;4.65;;;17.90;99.90;;;;;;5047387;28;20024;-71
2021/07/08 05:34:04;;;;;;;10.90;6.22;;;17.90;99.90;;;;;;5047585;28;20025;-70
2021/07/08 05:36:30;;;;;;;9.20;5.28;;;17.90;99.90;;;;;;5047348;28;20029;-71
2021/07/08 05:38:55;;;;;;;11.65;5.80;;;17.90;99.90;;;;;;5047275;28;20032;-71
2021/07/08 05:41:21;;;;;;;7.85;4.95;;;17.90;99.90;;;;;;5029146;28;20045;-71
2021/07/08 05:43:46;;;;;;;10.02;4.72;;;18.00;99.90;;;;;;5041620;28;20021;-70
2021/07/08 05:46:12;;;;;;;16.80;4.95;;;18.00;99.90;;;;;;5047139;28;20025;-71
2021/07/08 05:48:41;;;;;;;9.85;4.63;;;18.00;99.90;;;;;;5043180;28;20468;-72
2021/07/08 05:51:06;;;;;;;10.70;5.90;;;18.00;99.90;;;;;;5027094;28;20468;-69
2021/07/08 05:53:37;;;;;;;6.97;4.68;;;18.10;99.90;;;;;;5034016;28;20061;-70
2021/07/08 05:56:02;;;;;;;7.45;5.43;;;18.10;99.90;;;;;;5046167;28;20029;-69
2021/07/08 05:58:28;;;;;;;9.30;4.70;;;18.10;99.90;;;;;;5046873;28;20068;-69
2021/07/08 06:00:53;;;;;;;16.27;5.93;;;18.10;99.90;;;;;;5046775;28;20045;-69
2021/07/08 06:03:19;;;;;;;8.73;5.00;;;18.10;99.90;;;;;;5036486;28;20048;-70
2021/07/08 06:05:45;;;;;;;10.73;5.05;;;18.20;99.90;;;;;;5026676;28;20109;-70
2021/07/08 06:08:11;;;;;;;10.27;4.90;;;18.20;99.90;;;;;;5026089;28;20064;-70
2021/07/08 06:10:37;;;;;;;8.90;5.28;;;18.20;99.90;;;;;;5027114;28;20057;-70
2021/07/08 06:13:03;;;;;;;9.73;5.18;;;18.20;99.90;;;;;;5036238;28;20049;-70
2021/07/08 06:15:30;;;;;;;8.95;5.47;;;18.20;99.90;;;;;;5031591;28;20116;-69
2021/07/08 06:17:56;;;;;;;7.13;4.70;;;18.30;99.90;;;;;;5046694;28;20039;-69
2021/07/08 06:20:22;;;;;;;7.53;4.70;;;18.30;99.90;;;;;;5046303;28;20029;-69
2021/07/08 06:22:48;;;;;;;12.10;5.40;;;18.40;99.90;;;;;;5039819;28;20499;-69
2021/07/08 06:25:14;;;;;;;8.23;5.00;;;18.50;99.90;;;;;;5026350;28;20026;-71
2021/07/08 06:27:39;;;;;;;10.52;4.75;;;18.60;99.90;;;;;;5026236;28;20038;-68
2021/07/08 06:30:06;;;;;;;14.40;5.65;;;18.60;99.90;;;;;;5026364;28;20035;-69
2021/07/08 06:32:32;;;;;;;17.17;5.50;;;18.70;99.90;;;;;;5026230;28;20036;-69
2021/07/08 06:34:58;;;;;;;7.15;4.43;;;18.90;99.90;;;;;;5026332;28;20030;-70
2021/07/08 06:37:23;;;;;;;16.98;5.72;;;18.90;99.90;;;;;;5026181;28;20029;-69
2021/07/08 06:39:51;;;;;;;7.60;3.78;;;19.00;99.90;;;;;;5026316;28;20039;-68
2021/07/08 06:42:17;;;;;;;5.68;4.10;;;19.10;99.90;;;;;;5026015;28;20056;-68
2021/07/08 06:44:43;;;;;;;6.53;4.43;;;19.10;99.90;;;;;;5026617;28;20026;-70
2021/07/08 06:47:13;;;;;;;7.18;4.45;;;19.20;99.90;;;;;;5027364;28;20052;-69
2021/07/08 06:49:39;;;;;;;9.52;4.95;;;19.30;99.90;;;;;;5026539;28;20037;-70
2021/07/08 06:52:05;;;;;;;9.90;4.60;;;19.40;99.90;;;;;;5027451;28;20030;-68
2021/07/08 06:54:31;;;;;;;7.13;4.13;;;19.40;99.90;;;;;;5045801;28;20395;-68
2021/07/08 06:56:57;;;;;;;5.03;3.53;;;19.50;99.90;;;;;;5045885;28;20441;-68
2021/07/08 06:59:23;;;;;;;7.05;4.95;;;19.50;99.90;;;;;;5044552;28;20025;-68
2021/07/08 07:01:48;;;;;;;5.22;3.95;;;19.60;99.90;;;;;;5043456;28;20042;-68
2021/07/08 07:04:14;;;;;;;8.63;4.68;;;19.70;99.90;;;;;;5043162;28;20026;-69
2021/07/08 07:06:40;;;;;;;8.63;4.18;;;19.70;99.90;;;;;;5040026;28;20034;-68
2021/07/08 07:09:06;;;;;;;8.40;4.45;;;19.80;99.90;;;;;;5025299;28;20037;-69
2021/07/08 07:11:32;;;;;;;7.43;3.60;;;19.80;99.90;;;;;;5025762;28;20118;-69
2021/07/08 07:13:57;;;;;;;8.38;4.75;;;19.80;99.90;;;;;;5025641;28;20085;-68
2021/07/08 07:16:23;;;;;;;7.68;4.25;;;19.90;99.90;;;;;;5025552;28;20026;-68
2021/07/08 07:18:53;;;;;;;7.78;4.35;;;19.90;99.90;;;;;;5024897;28;20049;-69
2021/07/08 07:21:19;;;;;;;4.78;3.22;;;20.00;99.90;;;;;;5025626;28;20030;-68
2021/07/08 07:23:45;;;;;;;5.90;3.63;;;20.00;99.90;;;;;;5025521;28;20026;-67
2021/07/08 07:26:11;;;;;;;5.57;3.50;;;20.10;99.90;;;;;;5024785;28;20022;-68
2021/07/08 07:28:37;;;;;;;5.47;3.25;;;20.20;99.90;;;;;;5024658;28;20041;-69
2021/07/08 07:31:05;;;;;;;3.67;2.50;;;20.30;99.90;;;;;;5025244;28;20056;-68
2021/07/08 07:33:31;;;;;;;2.83;2.40;;;20.40;99.90;;;;;;5027583;28;20113;-69
2021/07/08 07:35:57;;;;;;;5.63;2.45;;;20.50;99.90;;;;;;5024623;28;20030;-68
2021/07/08 07:38:23;;;;;;;2.92;2.03;;;20.60;99.90;;;;;;5025335;28;20030;-68
2021/07/08 07:40:48;;;;;;;5.50;2.78;;;20.70;99.90;;;;;;5024948;28;20033;-69
2021/07/08 07:43:14;;;;;;;2.70;2.08;;;20.80;99.90;;;;;;5028292;28;20034;-68
2021/07/08 07:45:41;;;;;;;2.08;1.67;;;20.80;99.90;;;;;;5044830;28;20036;-71
2021/07/08 07:48:09;;;;;;;4.13;2.25;;;20.90;99.90;;;;;;5045051;28;20033;-69
2021/07/08 07:50:36;;;;;;;3.45;2.47;;;21.10;99.90;;;;;;5043395;28;20048;-71
2021/07/08 07:53:05;;;;;;;4.30;2.50;;;21.20;99.90;;;;;;5043746;28;20051;-69
2021/07/08 07:55:32;;;;;;;5.00;2.38;;;21.40;99.90;;;;;;5044930;28;20108;-68
2021/07/08 07:58:00;;;;;;;1.58;1.35;;;21.40;99.90;;;;;;5029342;28;20112;-71
2021/07/08 08:00:26;;;;;;;3.47;2.08;;;21.40;99.90;;;;;;5022327;28;20045;-70
2021/07/08 08:02:52;;;;;;;3.65;2.20;;;21.50;99.90;;;;;;5032012;28;20037;-69
2021/07/08 08:05:33;;;;;;;5.03;2.20;;;21.60;99.90;;;;;;5023512;28;20078;-69
2021/07/08 08:10:45;;;;;;;3.92;2.28;;;21.70;99.90;;;;;;5024236;28;20037;-70
2021/07/08 08:13:11;;;;;;;7.88;1.92;;;21.80;99.90;;;;;;5024376;28;20042;-70
2021/07/08 08:15:39;;;;;;;7.25;2.50;;;21.70;99.90;;;;;;5024994;28;20033;-71
2021/07/08 08:18:04;;;;;;;3.95;1.80;;;21.80;99.90;;;;;;5023127;28;20049;-70
2021/07/08 08:20:31;;;;;;;4.07;2.38;;;21.70;99.90;;;;;;5024486;28;20034;-69
2021/07/08 08:22:57;;;;;;;3.80;2.65;;;21.70;99.90;;;;;;5024128;28;20030;-71
2021/07/08 08:25:23;;;;;;;5.03;2.42;;;21.80;99.90;;;;;;5023850;28;20078;-70
2021/07/08 08:27:49;;;;;;;5.35;2.80;;;21.80;99.90;;;;;;5024287;28;20116;-68
2021/07/08 08:30:15;;;;;;;10.25;2.40;;;21.80;99.90;;;;;;5024864;28;20026;-69
2021/07/08 08:32:43;;;;;;;3.20;1.85;;;21.90;99.90;;;;;;5028815;28;20026;-68
2021/07/08 08:35:11;;;;;;;10.65;2.72;;;21.90;99.90;;;;;;5040348;28;20391;-68
2021/07/08 08:37:37;;;;;;;7.00;2.00;;;22.00;99.90;;;;;;5037953;28;20033;-71
2021/07/08 08:40:04;;;;;;;5.32;2.28;;;22.10;99.90;;;;;;5040481;28;20072;-70
2021/07/08 08:42:51;;;;;;;6.68;2.10;;;22.10;99.90;;;;;;5036158;28;20057;-70
2021/07/08 08:45:18;;;;;;;7.32;2.90;;;22.20;99.90;;;;;;5028104;28;20065;-70
2021/07/08 08:48:04;;;;;;;3.55;1.92;;;22.20;99.90;;;;;;5027996;28;20026;-69
2021/07/08 08:50:40;;;;;;;3.03;1.98;;;22.30;99.90;;;;;;5044071;28;20033;-69
2021/07/08 08:53:06;;;;;;;3.05;1.60;;;22.40;99.90;;;;;;5040242;28;20017;-70
2021/07/08 08:55:35;;;;;;;3.67;2.08;;;22.40;99.90;;;;;;5037135;28;20037;-70
2021/07/08 08:58:02;;;;;;;4.45;1.85;;;22.50;99.90;;;;;;5028876;28;20037;-68
2021/07/08 09:00:28;;;;;;;2.53;1.52;;;22.50;99.90;;;;;;5028943;28;20100;-70
2021/07/08 09:03:06;;;;;;;5.47;1.80;;;22.60;99.90;;;;;;5032181;28;20033;-69
2021/07/08 09:05:32;;;;;;;15.55;2.25;;;22.60;99.90;;;;;;5036837;28;20026;-68
2021/07/08 09:08:21;;;;;;;6.53;1.92;;;22.70;99.90;;;;;;5034730;28;20042;-70
2021/07/08 09:11:03;;;;;;;1.98;1.25;;;22.80;99.90;;;;;;5028001;28;20030;-69
2021/07/08 09:14:01;;;;;;;3.90;1.30;;;22.90;99.90;;;;;;5027985;28;20033;-69
2021/07/08 09:16:36;;;;;;;3.22;1.48;;;23.00;99.90;;;;;;5023500;28;20045;-71
2021/07/08 09:19:17;;;;;;;2.53;1.48;;;23.10;99.90;;;;;;5027609;28;20022;-70
2021/07/08 09:21:47;;;;;;;4.18;1.23;;;23.20;99.90;;;;;;5027792;28;20034;-69
2021/07/08 09:24:15;;;;;;;3.72;1.52;;;23.20;99.90;;;;;;5027655;28;20076;-67
2021/07/08 09:26:46;;;;;;;3.75;1.88;;;23.20;99.90;;;;;;5027829;28;20030;-69
2021/07/08 09:29:18;;;;;;;2.47;1.38;;;23.30;99.90;;;;;;5027711;28;20125;-69
2021/07/08 09:31:53;;;;;;;1.75;1.02;;;23.40;99.90;;;;;;5027302;28;20026;-69
2021/07/08 09:34:31;;;;;;;2.10;1.23;;;23.50;99.90;;;;;;5026237;28;20049;-68
2021/07/08 09:37:12;;;;;;;7.18;1.25;;;23.50;99.90;;;;;;5032410;28;20041;-69
2021/07/08 09:39:39;;;;;;;1.85;1.10;;;23.60;99.90;;;;;;5044862;28;20092;-69
2021/07/08 09:42:06;;;;;;;1.63;0.80;;;23.60;99.90;;;;;;5045974;28;20029;-70
2021/07/08 09:44:32;;;;;;;3.00;1.35;;;23.70;99.90;;;;;;5047198;28;20037;-68
2021/07/08 09:46:59;;;;;;;1.77;1.13;;;23.80;99.90;;;;;;5047146;28;20097;-69
2021/07/08 09:49:27;;;;;;;2.00;1.13;;;23.90;99.90;;;;;;5044241;28;20037;-68
2021/07/08 09:51:53;;;;;;;3.88;1.00;;;23.90;99.90;;;;;;5037320;28;20037;-69
2021/07/08 09:57:40;;;;;;;2.53;1.17;;;24.10;99.90;;;;;;5037740;28;20475;-71
2021/07/08 10:00:18;;;;;;;1.10;0.90;;;24.10;99.90;;;;;;5026577;28;20077;-67
2021/07/08 10:02:44;;;;;;;5.35;1.60;;;24.30;99.90;;;;;;5025280;28;20063;-70
2021/07/08 10:05:10;;;;;;;4.97;1.67;;;24.30;99.90;;;;;;5026860;28;20036;-72
2021/07/08 10:07:37;;;;;;;1.48;1.17;;;24.50;99.90;;;;;;5025875;28;20069;-72
2021/07/08 10:10:04;;;;;;;2.28;1.20;;;24.50;99.90;;;;;;5026562;28;20116;-70
2021/07/08 10:12:32;;;;;;;1.40;1.02;;;24.60;99.90;;;;;;5026025;28;20103;-69
2021/07/08 10:15:00;;;;;;;8.20;1.58;;;24.70;99.90;;;;;;5023492;28;20026;-67
2021/07/08 10:17:30;;;;;;;1.05;0.70;;;24.80;99.90;;;;;;5025555;28;20045;-69
2021/07/08 10:19:57;;;;;;;1.52;1.20;;;24.90;99.90;;;;;;5025422;28;20029;-72
2021/07/08 10:22:23;;;;;;;2.03;1.20;;;25.00;99.90;;;;;;5025914;28;20022;-72
2021/07/08 10:24:49;;;;;;;1.80;1.20;;;25.00;99.90;;;;;;5025263;28;20693;-70
2021/07/08 10:27:17;;;;;;;2.85;1.08;;;25.10;99.90;;;;;;5025671;28;20026;-74
2021/07/08 10:29:45;;;;;;;7.05;1.23;;;25.10;99.90;;;;;;5025604;28;20034;-70
2021/07/08 10:32:16;;;;;;;1.20;0.80;;;25.20;99.90;;;;;;5026433;28;20060;-69
2021/07/08 10:34:47;;;;;;;7.93;1.23;;;25.30;99.90;;;;;;5026292;28;20503;-71
2021/07/08 10:37:35;;;;;;;4.18;1.60;;;25.50;99.90;;;;;;5026442;28;20460;-70
2021/07/08 10:40:02;;;;;;;1.85;1.10;;;25.70;99.90;;;;;;5025199;28;20484;-72
2021/07/08 10:42:49;;;;;;;2.95;0.90;;;25.80;99.90;;;;;;5026054;28;20045;-70
2021/07/08 10:45:26;;;;;;;2.83;1.27;;;25.90;99.90;;;;;;5026090;28;20061;-69
2021/07/08 10:48:07;;;;;;;8.27;1.65;;;25.90;99.90;;;;;;5026062;28;20575;-70
2021/07/08 10:50:35;;;;;;;1.80;1.20;;;25.90;99.90;;;;;;5026074;28;20057;-68
2021/07/08 10:53:18;;;;;;;2.92;1.27;;;26.10;99.90;;;;;;5026422;28;20072;-70
2021/07/08 10:55:46;;;;;;;1.20;0.90;;;26.30;99.90;;;;;;5024729;28;20080;-70
2021/07/08 10:58:41;;;;;;;1.60;0.93;;;26.50;99.90;;;;;;5026148;28;20026;-69
2021/07/08 11:01:09;;;;;;;1.17;0.80;;;26.60;99.90;;;;;;5025952;28;20021;-71
2021/07/08 11:03:45;;;;;;;2.75;1.38;;;26.70;99.90;;;;;;5025747;28;20037;-74
2021/07/08 11:06:25;;;;;;;2.97;1.50;;;26.80;99.90;;;;;;5026143;28;20080;-72
2021/07/08 11:08:55;;;;;;;2.15;1.10;;;26.90;99.90;;;;;;5025886;28;20044;-71
2021/07/08 11:11:23;;;;;;;4.70;1.30;;;26.80;99.90;;;;;;5024086;28;20053;-72
2021/07/08 11:13:57;;;;;;;5.22;1.63;;;26.80;99.90;;;;;;5025947;28;20034;-70
2021/07/08 11:16:43;;;;;;;2.38;1.42;;;26.90;99.90;;;;;;5026174;28;20033;-72
2021/07/08 11:19:11;;;;;;;1.20;1.08;;;27.10;99.90;;;;;;5025667;28;20053;-71
2021/07/08 11:21:49;;;;;;;1.75;1.10;;;27.30;99.90;;;;;;5025887;28;20018;-73
2021/07/08 11:24:15;;;;;;;2.08;1.05;;;27.50;99.90;;;;;;5025485;28;20086;-70
2021/07/08 11:27:06;;;;;;;2.17;1.38;;;27.60;99.90;;;;;;5024200;28;20036;-68
2021/07/08 11:29:38;;;;;;;3.38;1.35;;;27.70;99.90;;;;;;5025658;28;20097;-69
2021/07/08 11:32:31;;;;;;;1.10;0.77;;;27.90;99.90;;;;;;5024076;28;20029;-69
2021/07/08 11:34:59;;;;;;;1.90;1.00;;;28.10;99.90;;;;;;5024813;28;20049;-71
2021/07/08 11:37:39;;;;;;;2.53;1.05;;;28.20;99.90;;;;;;5025267;28;20488;-71
2021/07/08 11:40:11;;;;;;;2.00;1.02;;;28.20;99.90;;;;;;5025327;28;20053;-71
2021/07/08 11:42:39;;;;;;;4.30;1.08;;;28.20;99.90;;;;;;5023930;28;20021;-72
2021/07/08 11:45:09;;;;;;;2.75;1.33;;;28.30;99.90;;;;;;5025348;28;20034;-71
2021/07/08 11:47:43;;;;;;;1.63;1.02;;;28.50;99.90;;;;;;5025270;28;20037;-73
2021/07/08 11:50:20;;;;;;;2.03;0.88;;;28.60;99.90;;;;;;5025276;28;20030;-72
2021/07/08 11:53:09;;;;;;;9.77;1.65;;;28.80;99.90;;;;;;5023681;28;20496;-74
2021/07/08 11:55:41;;;;;;;1.75;1.02;;;29.00;99.90;;;;;;5024040;28;20022;-73
2021/07/08 11:58:08;;;;;;;2.35;1.20;;;29.10;99.90;;;;;;5024955;28;20086;-73
2021/07/08 12:00:42;;;;;;;1.70;0.90;;;29.20;99.90;;;;;;5050182;28;20077;-72
2021/07/08 12:03:26;;;;;;;;;;;29.40;99.90;;;;;;5052940;28;20036;-72
2021/07/08 12:05:56;;;;;;;1.20;0.90;;;29.30;99.90;;;;;;5046121;28;20405;-69
2021/07/08 12:08:27;;;;;;;1.73;0.90;;;29.40;99.90;;;;;;5053837;28;20047;-69
2021/07/08 12:11:09;;;;;;;2.55;1.13;;;29.50;99.90;;;;;;5050337;28;20041;-69
2021/07/08 12:13:46;;;;;;;2.25;1.05;;;29.60;99.90;;;;;;5064738;28;20430;-71
2021/07/08 12:16:11;;;;;;;1.92;0.95;;;29.80;99.90;;;;;;5064719;28;20032;-70
2021/07/08 12:18:49;;;;;;;5.20;1.13;;;30.00;99.90;;;;;;5064922;28;20033;-71
2021/07/08 12:21:27;;;;;;;2.25;1.02;;;30.20;99.90;;;;;;5064674;28;20047;-70
2021/07/08 12:23:55;;;;;;;1.98;1.00;;;29.90;99.90;;;;;;5062978;28;20032;-70
2021/07/08 12:26:35;;;;;;;1.35;0.80;;;29.50;99.90;;;;;;5064132;28;20029;-69
2021/07/08 12:29:13;;;;;;;1.45;0.90;;;29.50;99.90;;;;;;5063259;28;20410;-69
2021/07/08 12:31:48;;;;;;;2.53;0.80;;;29.80;99.90;;;;;;5063125;28;20029;-71
2021/07/08 12:34:14;;;;;;;1.20;0.80;;;30.00;99.90;;;;;;5054444;28;20402;-72
2021/07/08 12:36:41;;;;;;;1.65;1.10;;;29.70;99.90;;;;;;5055125;28;20037;-72
2021/07/08 12:39:07;;;;;;;4.03;1.30;;;29.30;99.90;;;;;;5057430;28;20025;-72
2021/07/08 12:41:34;;;;;;;0.80;0.75;;;28.90;99.90;;;;;;5048301;28;20104;-70
2021/07/08 12:44:10;;;;;;;2.15;1.25;;;28.50;99.90;;;;;;5064241;28;20031;-69
2021/07/08 12:46:35;;;;;;;1.80;1.27;;;28.20;99.90;;;;;;5064617;28;20035;-71
2021/07/08 12:49:02;;;;;;;2.13;1.00;;;28.00;99.90;;;;;;5048565;28;20069;-71
2021/07/08 12:51:28;;;;;;;2.20;1.17;;;28.00;99.90;;;;;;5030731;28;20434;-70
2021/07/08 12:53:54;;;;;;;3.05;1.35;;;27.90;99.90;;;;;;5026412;28;20105;-71
2021/07/08 12:56:23;;;;;;;1.50;1.00;;;27.80;99.90;;;;;;5022920;28;20034;-69
2021/07/08 12:58:59;;;;;;;2.70;1.40;;;27.70;99.90;;;;;;5023540;28;20025;-70